Aviation Digital Data Service (ADDS)

Output produced by METARs form (1232 UTC 19 February 2020)
found at http://aviationweather.gov/metar/data/
 
Forecast for: KOLM (OLYMPIA , WA, US)
Text: KOLM 191120Z 1912/2012 00000KT P6SM SKC
Forecast period: 1200 to 1800 UTC 19 February 2020
Forecast type: FROM: standard forecast or significant change
Winds: calm
Visibility: 6 or more miles 10+ km)
Clouds: clear skies
Weather: no significant weather forecast for this period
Text: FM191800 02005KT P6SM SKC
Forecast period: 1800 UTC 19 February 2020 to 1200 UTC 20 February 2020
Forecast type: FROM: standard forecast or significant change
Winds: from the NNE (20 degrees) at 6 MPH (5 knots; 2.6 m/s)
Visibility: 6 or more miles 10+ km)
Clouds: clear skies
Weather: no significant weather forecast for this period